sensor_id;sensor_type;location;lat;lon;timestamp;temperature;humidity
38241;DHT22;24037;49.536;8.500;2023-08-24T00:01:26;18.60;99.90
38241;DHT22;24037;49.536;8.500;2023-08-24T00:03:52;18.60;99.90
38241;DHT22;24037;49.536;8.500;2023-08-24T00:06:19;18.50;99.90
38241;DHT22;24037;49.536;8.500;2023-08-24T00:08:45;18.40;99.90
38241;DHT22;24037;49.536;8.500;2023-08-24T00:11:11;18.20;99.90
38241;DHT22;24037;49.536;8.500;2023-08-24T00:13:44;18.20;99.90
38241;DHT22;24037;49.536;8.500;2023-08-24T00:16:20;18.10;99.90
38241;DHT22;24037;49.536;8.500;2023-08-24T00:18:49;18.00;99.90
38241;DHT22;24037;49.536;8.500;2023-08-24T00:21:16;17.90;99.90
38241;DHT22;24037;49.536;8.500;2023-08-24T00:23:52;17.90;99.90
38241;DHT22;24037;49.536;8.500;2023-08-24T00:26:18;18.00;99.90
38241;DHT22;24037;49.536;8.500;2023-08-24T00:28:46;18.00;99.90
38241;DHT22;24037;49.536;8.500;2023-08-24T00:31:14;18.00;99.90
38241;DHT22;24037;49.536;8.500;2023-08-24T00:33:40;17.90;99.90
38241;DHT22;24037;49.536;8.500;2023-08-24T00:36:07;18.00;99.90
38241;DHT22;24037;49.536;8.500;2023-08-24T00:38:34;18.10;99.90
38241;DHT22;24037;49.536;8.500;2023-08-24T00:41:00;18.10;99.90
38241;DHT22;24037;49.536;8.500;2023-08-24T00:43:27;18.00;99.90
38241;DHT22;24037;49.536;8.500;2023-08-24T00:45:56;18.00;99.90
38241;DHT22;24037;49.536;8.500;2023-08-24T00:48:23;18.00;99.90
38241;DHT22;24037;49.536;8.500;2023-08-24T00:50:55;17.90;99.90
38241;DHT22;24037;49.536;8.500;2023-08-24T00:53:23;17.90;99.90
38241;DHT22;24037;49.536;8.500;2023-08-24T00:55:51;17.90;99.90
38241;DHT22;24037;49.536;8.500;2023-08-24T00:58:17;17.80;99.90
38241;DHT22;24037;49.536;8.500;2023-08-24T01:00:47;17.80;99.90
38241;DHT22;24037;49.536;8.500;2023-08-24T01:03:13;17.90;99.90
38241;DHT22;24037;49.536;8.500;2023-08-24T01:05:43;17.80;99.90
38241;DHT22;24037;49.536;8.500;2023-08-24T01:08:12;17.90;99.90
38241;DHT22;24037;49.536;8.500;2023-08-24T01:10:48;17.80;99.90
38241;DHT22;24037;49.536;8.500;2023-08-24T01:13:32;17.80;99.90
38241;DHT22;24037;49.536;8.500;2023-08-24T01:16:09;17.70;99.90
38241;DHT22;24037;49.536;8.500;2023-08-24T01:18:38;17.60;99.90
38241;DHT22;24037;49.536;8.500;2023-08-24T01:21:05;17.60;99.90
38241;DHT22;24037;49.536;8.500;2023-08-24T01:23:53;17.50;99.90
38241;DHT22;24037;49.536;8.500;2023-08-24T01:26:23;17.60;99.90
38241;DHT22;24037;49.536;8.500;2023-08-24T01:28:50;17.60;99.90
38241;DHT22;24037;49.536;8.500;2023-08-24T01:31:17;17.60;99.90
38241;DHT22;24037;49.536;8.500;2023-08-24T01:33:44;17.60;99.90
38241;DHT22;24037;49.536;8.500;2023-08-24T01:36:12;17.50;99.90
38241;DHT22;24037;49.536;8.500;2023-08-24T01:38:39;17.50;99.90
38241;DHT22;24037;49.536;8.500;2023-08-24T01:41:12;17.50;99.90
38241;DHT22;24037;49.536;8.500;2023-08-24T01:43:40;17.50;99.90
38241;DHT22;24037;49.536;8.500;2023-08-24T01:46:08;17.50;99.90
38241;DHT22;24037;49.536;8.500;2023-08-24T01:48:35;17.40;99.90
38241;DHT22;24037;49.536;8.500;2023-08-24T01:51:02;17.40;99.90
38241;DHT22;24037;49.536;8.500;2023-08-24T01:53:31;17.30;99.90
38241;DHT22;24037;49.536;8.500;2023-08-24T01:55:57;17.40;99.90
38241;DHT22;24037;49.536;8.500;2023-08-24T01:58:23;17.40;99.90
38241;DHT22;24037;49.536;8.500;2023-08-24T02:00:50;17.50;99.90
38241;DHT22;24037;49.536;8.500;2023-08-24T02:03:16;17.50;99.90
38241;DHT22;24037;49.536;8.500;2023-08-24T02:05:42;17.40;99.90
38241;DHT22;24037;49.536;8.500;2023-08-24T02:08:08;17.20;99.90
38241;DHT22;24037;49.536;8.500;2023-08-24T02:10:34;17.10;99.90
38241;DHT22;24037;49.536;8.500;2023-08-24T02:13:00;17.10;1.00
38241;DHT22;24037;49.536;8.500;2023-08-24T02:15:27;17.10;1.00
38241;DHT22;24037;49.536;8.500;2023-08-24T02:17:53;17.10;1.00
38241;DHT22;24037;49.536;8.500;2023-08-24T02:20:20;17.10;1.00
38241;DHT22;24037;49.536;8.500;2023-08-24T02:22:46;17.10;1.00
38241;DHT22;24037;49.536;8.500;2023-08-24T02:25:12;17.10;1.00
38241;DHT22;24037;49.536;8.500;2023-08-24T02:27:38;17.10;1.00
38241;DHT22;24037;49.536;8.500;2023-08-24T02:30:05;17.10;1.00
38241;DHT22;24037;49.536;8.500;2023-08-24T02:32:31;17.20;1.00
38241;DHT22;24037;49.536;8.500;2023-08-24T02:34:58;17.20;1.00
38241;DHT22;24037;49.536;8.500;2023-08-24T02:37:24;17.20;1.00
38241;DHT22;24037;49.536;8.500;2023-08-24T02:39:50;17.10;1.00
38241;DHT22;24037;49.536;8.500;2023-08-24T02:42:16;17.00;1.00
38241;DHT22;24037;49.536;8.500;2023-08-24T02:44:43;16.90;1.00
38241;DHT22;24037;49.536;8.500;2023-08-24T02:47:09;17.00;1.00
38241;DHT22;24037;49.536;8.500;2023-08-24T02:49:35;16.90;1.00
38241;DHT22;24037;49.536;8.500;2023-08-24T02:52:03;17.00;1.00
38241;DHT22;24037;49.536;8.500;2023-08-24T02:54:29;17.10;1.00
38241;DHT22;24037;49.536;8.500;2023-08-24T02:56:55;17.20;1.00
38241;DHT22;24037;49.536;8.500;2023-08-24T02:59:22;17.20;1.00
38241;DHT22;24037;49.536;8.500;2023-08-24T03:01:48;17.20;1.00
38241;DHT22;24037;49.536;8.500;2023-08-24T03:04:14;17.10;1.00
38241;DHT22;24037;49.536;8.500;2023-08-24T03:06:42;17.10;1.00
38241;DHT22;24037;49.536;8.500;2023-08-24T03:09:09;17.10;1.00
38241;DHT22;24037;49.536;8.500;2023-08-24T03:11:35;17.10;1.00
38241;DHT22;24037;49.536;8.500;2023-08-24T03:14:01;17.00;1.00
38241;DHT22;24037;49.536;8.500;2023-08-24T03:16:27;17.00;1.00
38241;DHT22;24037;49.536;8.500;2023-08-24T03:18:54;16.90;1.00
38241;DHT22;24037;49.536;8.500;2023-08-24T03:21:20;16.90;1.00
38241;DHT22;24037;49.536;8.500;2023-08-24T03:23:46;16.80;1.00
38241;DHT22;24037;49.536;8.500;2023-08-24T03:26:12;16.90;1.00
38241;DHT22;24037;49.536;8.500;2023-08-24T03:28:38;16.90;1.00
38241;DHT22;24037;49.536;8.500;2023-08-24T03:31:06;17.00;1.00
38241;DHT22;24037;49.536;8.500;2023-08-24T03:33:33;17.10;1.00
38241;DHT22;24037;49.536;8.500;2023-08-24T03:36:01;17.20;1.00
38241;DHT22;24037;49.536;8.500;2023-08-24T03:38:29;17.30;1.00
38241;DHT22;24037;49.536;8.500;2023-08-24T03:41:00;17.40;1.00
38241;DHT22;24037;49.536;8.500;2023-08-24T03:43:27;17.50;99.90
38241;DHT22;24037;49.536;8.500;2023-08-24T03:45:53;17.60;99.90
38241;DHT22;24037;49.536;8.500;2023-08-24T03:48:19;17.70;99.90
38241;DHT22;24037;49.536;8.500;2023-08-24T03:50:46;17.70;99.90
38241;DHT22;24037;49.536;8.500;2023-08-24T03:53:13;17.80;99.90
38241;DHT22;24037;49.536;8.500;2023-08-24T03:55:39;17.70;99.90
38241;DHT22;24037;49.536;8.500;2023-08-24T03:58:05;17.70;99.90
38241;DHT22;24037;49.536;8.500;2023-08-24T04:00:32;17.70;99.90
38241;DHT22;24037;49.536;8.500;2023-08-24T04:03:00;17.60;99.90
38241;DHT22;24037;49.536;8.500;2023-08-24T04:05:27;17.50;99.90
38241;DHT22;24037;49.536;8.500;2023-08-24T04:07:53;17.50;99.90
38241;DHT22;24037;49.536;8.500;2023-08-24T04:10:20;17.60;99.90
38241;DHT22;24037;49.536;8.500;2023-08-24T04:12:46;17.60;99.90
38241;DHT22;24037;49.536;8.500;2023-08-24T04:15:12;17.50;99.90
38241;DHT22;24037;49.536;8.500;2023-08-24T04:17:38;17.50;99.90
38241;DHT22;24037;49.536;8.500;2023-08-24T04:20:05;17.40;99.90
38241;DHT22;24037;49.536;8.500;2023-08-24T04:22:33;17.40;99.90
38241;DHT22;24037;49.536;8.500;2023-08-24T04:24:59;17.40;1.00
38241;DHT22;24037;49.536;8.500;2023-08-24T04:27:26;17.50;1.00
38241;DHT22;24037;49.536;8.500;2023-08-24T04:29:52;17.50;99.90
38241;DHT22;24037;49.536;8.500;2023-08-24T04:32:19;17.50;99.90
38241;DHT22;24037;49.536;8.500;2023-08-24T04:34:45;17.40;1.00
38241;DHT22;24037;49.536;8.500;2023-08-24T04:37:11;17.40;1.00
38241;DHT22;24037;49.536;8.500;2023-08-24T04:39:37;17.40;1.00
38241;DHT22;24037;49.536;8.500;2023-08-24T04:42:03;17.40;1.00
38241;DHT22;24037;49.536;8.500;2023-08-24T04:44:30;17.40;1.00
38241;DHT22;24037;49.536;8.500;2023-08-24T04:46:56;17.50;1.00
38241;DHT22;24037;49.536;8.500;2023-08-24T04:49:22;17.60;99.90
38241;DHT22;24037;49.536;8.500;2023-08-24T04:51:48;17.60;99.90
38241;DHT22;24037;49.536;8.500;2023-08-24T04:54:14;17.60;99.90
38241;DHT22;24037;49.536;8.500;2023-08-24T04:56:41;17.60;99.90
38241;DHT22;24037;49.536;8.500;2023-08-24T04:59:07;17.60;1.00
38241;DHT22;24037;49.536;8.500;2023-08-24T05:01:34;17.60;99.90
38241;DHT22;24037;49.536;8.500;2023-08-24T05:04:01;17.60;99.90
38241;DHT22;24037;49.536;8.500;2023-08-24T05:06:27;17.70;99.90
38241;DHT22;24037;49.536;8.500;2023-08-24T05:08:53;17.70;99.90
38241;DHT22;24037;49.536;8.500;2023-08-24T05:11:21;17.70;99.90
38241;DHT22;24037;49.536;8.500;2023-08-24T05:13:47;17.70;99.90
38241;DHT22;24037;49.536;8.500;2023-08-24T05:16:14;17.80;99.90
38241;DHT22;24037;49.536;8.500;2023-08-24T05:18:40;17.70;99.90
38241;DHT22;24037;49.536;8.500;2023-08-24T05:21:07;17.70;99.90
38241;DHT22;24037;49.536;8.500;2023-08-24T05:23:34;17.70;1.00
38241;DHT22;24037;49.536;8.500;2023-08-24T05:26:01;17.80;99.90
38241;DHT22;24037;49.536;8.500;2023-08-24T05:28:30;17.80;99.90
38241;DHT22;24037;49.536;8.500;2023-08-24T05:30:57;17.90;99.90
38241;DHT22;24037;49.536;8.500;2023-08-24T05:33:24;18.00;99.90
38241;DHT22;24037;49.536;8.500;2023-08-24T05:35:51;18.10;99.90
38241;DHT22;24037;49.536;8.500;2023-08-24T05:38:17;18.30;99.90
38241;DHT22;24037;49.536;8.500;2023-08-24T05:40:47;18.30;99.90
38241;DHT22;24037;49.536;8.500;2023-08-24T05:43:13;18.40;99.90
38241;DHT22;24037;49.536;8.500;2023-08-24T05:45:40;18.40;99.90
38241;DHT22;24037;49.536;8.500;2023-08-24T05:48:09;18.50;99.90
38241;DHT22;24037;49.536;8.500;2023-08-24T05:50:36;18.60;99.90
38241;DHT22;24037;49.536;8.500;2023-08-24T05:53:04;18.60;99.90
38241;DHT22;24037;49.536;8.500;2023-08-24T05:55:30;18.70;99.90
38241;DHT22;24037;49.536;8.500;2023-08-24T05:57:56;18.70;99.90
38241;DHT22;24037;49.536;8.500;2023-08-24T06:00:22;18.80;99.90
38241;DHT22;24037;49.536;8.500;2023-08-24T06:02:49;18.80;99.90
38241;DHT22;24037;49.536;8.500;2023-08-24T06:05:15;18.90;99.90
38241;DHT22;24037;49.536;8.500;2023-08-24T06:07:44;18.90;99.90
38241;DHT22;24037;49.536;8.500;2023-08-24T06:10:11;19.00;99.90
38241;DHT22;24037;49.536;8.500;2023-08-24T06:12:38;19.10;99.90
38241;DHT22;24037;49.536;8.500;2023-08-24T06:15:05;19.10;99.90
38241;DHT22;24037;49.536;8.500;2023-08-24T06:17:33;19.20;99.90
38241;DHT22;24037;49.536;8.500;2023-08-24T06:20:04;19.20;99.90
38241;DHT22;24037;49.536;8.500;2023-08-24T06:22:31;19.20;99.90
38241;DHT22;24037;49.536;8.500;2023-08-24T06:24:57;19.30;99.90
38241;DHT22;24037;49.536;8.500;2023-08-24T06:27:26;19.30;99.90
38241;DHT22;24037;49.536;8.500;2023-08-24T06:29:52;19.30;99.90
38241;DHT22;24037;49.536;8.500;2023-08-24T06:32:18;19.30;99.90
38241;DHT22;24037;49.536;8.500;2023-08-24T06:34:44;19.30;99.90
38241;DHT22;24037;49.536;8.500;2023-08-24T06:37:11;19.30;99.90
38241;DHT22;24037;49.536;8.500;2023-08-24T06:39:37;19.20;99.90
38241;DHT22;24037;49.536;8.500;2023-08-24T06:42:03;19.20;99.90
38241;DHT22;24037;49.536;8.500;2023-08-24T06:44:30;19.20;99.90
38241;DHT22;24037;49.536;8.500;2023-08-24T06:46:56;19.20;99.90
38241;DHT22;24037;49.536;8.500;2023-08-24T06:49:23;19.10;99.90
38241;DHT22;24037;49.536;8.500;2023-08-24T06:51:49;19.20;99.90
38241;DHT22;24037;49.536;8.500;2023-08-24T06:54:15;19.20;99.90
38241;DHT22;24037;49.536;8.500;2023-08-24T06:56:41;19.30;99.90
38241;DHT22;24037;49.536;8.500;2023-08-24T06:59:09;19.30;99.90
38241;DHT22;24037;49.536;8.500;2023-08-24T07:01:37;19.40;99.90
38241;DHT22;24037;49.536;8.500;2023-08-24T07:04:03;19.40;99.90
38241;DHT22;24037;49.536;8.500;2023-08-24T07:06:29;19.50;99.90
38241;DHT22;24037;49.536;8.500;2023-08-24T07:08:55;19.60;99.90
38241;DHT22;24037;49.536;8.500;2023-08-24T07:11:21;19.80;99.90
38241;DHT22;24037;49.536;8.500;2023-08-24T07:13:49;20.10;99.90
38241;DHT22;24037;49.536;8.500;2023-08-24T07:16:16;20.30;98.90
38241;DHT22;24037;49.536;8.500;2023-08-24T07:18:42;20.50;88.10
38241;DHT22;24037;49.536;8.500;2023-08-24T07:21:08;20.50;51.60
38241;DHT22;24037;49.536;8.500;2023-08-24T07:23:35;20.50;71.90
38241;DHT22;24037;49.536;8.500;2023-08-24T07:26:01;20.80;25.90
38241;DHT22;24037;49.536;8.500;2023-08-24T07:28:27;21.10;17.50
38241;DHT22;24037;49.536;8.500;2023-08-24T07:30:53;21.50;1.00
38241;DHT22;24037;49.536;8.500;2023-08-24T07:33:22;21.90;1.00
38241;DHT22;24037;49.536;8.500;2023-08-24T07:35:48;22.20;1.00
38241;DHT22;24037;49.536;8.500;2023-08-24T07:38:14;22.70;1.00
38241;DHT22;24037;49.536;8.500;2023-08-24T07:40:40;23.20;99.90
38241;DHT22;24037;49.536;8.500;2023-08-24T07:43:06;23.30;99.90
38241;DHT22;24037;49.536;8.500;2023-08-24T07:45:33;23.60;99.90
38241;DHT22;24037;49.536;8.500;2023-08-24T07:47:59;23.80;99.90
38241;DHT22;24037;49.536;8.500;2023-08-24T07:50:26;23.70;99.90
38241;DHT22;24037;49.536;8.500;2023-08-24T07:52:52;23.50;99.90
38241;DHT22;24037;49.536;8.500;2023-08-24T07:55:18;23.30;99.90
38241;DHT22;24037;49.536;8.500;2023-08-24T07:57:44;23.20;99.90
38241;DHT22;24037;49.536;8.500;2023-08-24T08:00:11;23.20;99.90
38241;DHT22;24037;49.536;8.500;2023-08-24T08:02:40;23.20;1.00
38241;DHT22;24037;49.536;8.500;2023-08-24T08:05:06;23.00;1.00
38241;DHT22;24037;49.536;8.500;2023-08-24T08:07:34;22.90;99.90
38241;DHT22;24037;49.536;8.500;2023-08-24T08:10:00;23.00;99.90
38241;DHT22;24037;49.536;8.500;2023-08-24T08:12:26;23.20;1.00
38241;DHT22;24037;49.536;8.500;2023-08-24T08:14:53;23.70;99.90
38241;DHT22;24037;49.536;8.500;2023-08-24T08:17:19;24.10;99.90
38241;DHT22;24037;49.536;8.500;2023-08-24T08:19:45;24.30;99.90
38241;DHT22;24037;49.536;8.500;2023-08-24T08:22:12;24.60;99.90
38241;DHT22;24037;49.536;8.500;2023-08-24T08:24:38;24.10;99.90
38241;DHT22;24037;49.536;8.500;2023-08-24T08:27:04;23.80;99.90
38241;DHT22;24037;49.536;8.500;2023-08-24T08:29:30;24.00;99.90
38241;DHT22;24037;49.536;8.500;2023-08-24T08:31:56;24.20;99.90
38241;DHT22;24037;49.536;8.500;2023-08-24T08:34:23;24.30;99.90
38241;DHT22;24037;49.536;8.500;2023-08-24T08:36:49;24.60;99.90
38241;DHT22;24037;49.536;8.500;2023-08-24T08:39:15;25.00;99.90
38241;DHT22;24037;49.536;8.500;2023-08-24T08:41:44;24.90;99.90
38241;DHT22;24037;49.536;8.500;2023-08-24T08:44:15;24.80;99.90
38241;DHT22;24037;49.536;8.500;2023-08-24T08:46:42;24.90;99.90
38241;DHT22;24037;49.536;8.500;2023-08-24T08:49:09;25.20;99.90
38241;DHT22;24037;49.536;8.500;2023-08-24T08:51:37;25.30;99.90
38241;DHT22;24037;49.536;8.500;2023-08-24T08:54:04;25.80;99.90
38241;DHT22;24037;49.536;8.500;2023-08-24T08:56:33;26.30;99.90
38241;DHT22;24037;49.536;8.500;2023-08-24T08:59:00;27.00;99.90
38241;DHT22;24037;49.536;8.500;2023-08-24T09:01:28;27.50;99.90
38241;DHT22;24037;49.536;8.500;2023-08-24T09:03:54;27.90;99.90
38241;DHT22;24037;49.536;8.500;2023-08-24T09:06:21;28.00;99.90
38241;DHT22;24037;49.536;8.500;2023-08-24T09:08:49;28.20;99.90
38241;DHT22;24037;49.536;8.500;2023-08-24T09:11:17;28.60;99.90
38241;DHT22;24037;49.536;8.500;2023-08-24T09:13:46;28.90;99.90
38241;DHT22;24037;49.536;8.500;2023-08-24T09:16:12;28.80;99.90
38241;DHT22;24037;49.536;8.500;2023-08-24T09:18:45;29.00;99.90
38241;DHT22;24037;49.536;8.500;2023-08-24T09:21:13;29.20;99.90
38241;DHT22;24037;49.536;8.500;2023-08-24T09:23:54;29.30;98.40
38241;DHT22;24037;49.536;8.500;2023-08-24T09:26:29;29.20;99.90
38241;DHT22;24037;49.536;8.500;2023-08-24T09:28:56;29.30;97.10
38241;DHT22;24037;49.536;8.500;2023-08-24T09:31:24;29.60;97.70
38241;DHT22;24037;49.536;8.500;2023-08-24T09:34:00;29.90;88.30
38241;DHT22;24037;49.536;8.500;2023-08-24T09:36:27;30.10;74.90
38241;DHT22;24037;49.536;8.500;2023-08-24T09:38:56;29.80;63.20
38241;DHT22;24037;49.536;8.500;2023-08-24T09:41:25;29.90;78.10
38241;DHT22;24037;49.536;8.500;2023-08-24T09:44:06;29.80;65.80
38241;DHT22;24037;49.536;8.500;2023-08-24T09:46:32;29.70;81.90
38241;DHT22;24037;49.536;8.500;2023-08-24T09:48:58;30.00;78.60
38241;DHT22;24037;49.536;8.500;2023-08-24T09:51:27;30.00;79.30
38241;DHT22;24037;49.536;8.500;2023-08-24T09:53:57;29.80;76.00
38241;DHT22;24037;49.536;8.500;2023-08-24T09:56:28;29.60;82.90
38241;DHT22;24037;49.536;8.500;2023-08-24T09:58:57;29.60;80.60
38241;DHT22;24037;49.536;8.500;2023-08-24T10:01:26;29.80;78.30
38241;DHT22;24037;49.536;8.500;2023-08-24T10:03:54;29.90;83.50
38241;DHT22;24037;49.536;8.500;2023-08-24T10:06:27;29.90;76.10
38241;DHT22;24037;49.536;8.500;2023-08-24T10:09:01;29.90;85.60
38241;DHT22;24037;49.536;8.500;2023-08-24T10:11:30;29.70;81.10
38241;DHT22;24037;49.536;8.500;2023-08-24T10:17:05;30.10;63.40
38241;DHT22;24037;49.536;8.500;2023-08-24T10:19:32;30.00;53.00
38241;DHT22;24037;49.536;8.500;2023-08-24T10:22:00;30.20;63.40
38241;DHT22;24037;49.536;8.500;2023-08-24T10:24:28;30.30;55.50
38241;DHT22;24037;49.536;8.500;2023-08-24T10:26:55;30.60;45.70
38241;DHT22;24037;49.536;8.500;2023-08-24T10:29:23;30.60;47.30
38241;DHT22;24037;49.536;8.500;2023-08-24T10:31:51;30.60;40.20
38241;DHT22;24037;49.536;8.500;2023-08-24T10:34:18;30.70;46.20
38241;DHT22;24037;49.536;8.500;2023-08-24T10:36:47;30.70;31.70
38241;DHT22;24037;49.536;8.500;2023-08-24T10:39:14;30.70;39.50
38241;DHT22;24037;49.536;8.500;2023-08-24T10:41:51;30.90;35.90
38241;DHT22;24037;49.536;8.500;2023-08-24T10:44:38;30.90;39.90
38241;DHT22;24037;49.536;8.500;2023-08-24T10:47:14;31.00;32.90
38241;DHT22;24037;49.536;8.500;2023-08-24T10:52:22;30.60;30.20
38241;DHT22;24037;49.536;8.500;2023-08-24T10:54:51;30.50;33.80
38241;DHT22;24037;49.536;8.500;2023-08-24T10:57:22;30.80;33.60
38241;DHT22;24037;49.536;8.500;2023-08-24T11:00:08;31.20;32.00
38241;DHT22;24037;49.536;8.500;2023-08-24T11:02:43;31.30;29.00
38241;DHT22;24037;49.536;8.500;2023-08-24T11:10:24;31.70;19.10
38241;DHT22;24037;49.536;8.500;2023-08-24T11:13:07;31.90;16.70
38241;DHT22;24037;49.536;8.500;2023-08-24T11:15:44;31.90;14.80
38241;DHT22;24037;49.536;8.500;2023-08-24T11:18:23;31.90;10.90
38241;DHT22;24037;49.536;8.500;2023-08-24T11:20:51;32.10;11.70
38241;DHT22;24037;49.536;8.500;2023-08-24T11:23:19;31.90;8.80
38241;DHT22;24037;49.536;8.500;2023-08-24T11:25:46;31.70;11.90
38241;DHT22;24037;49.536;8.500;2023-08-24T11:28:17;31.90;10.00
38241;DHT22;24037;49.536;8.500;2023-08-24T11:30:45;31.90;7.00
38241;DHT22;24037;49.536;8.500;2023-08-24T11:33:13;32.00;5.30
38241;DHT22;24037;49.536;8.500;2023-08-24T11:35:44;32.00;5.00
38241;DHT22;24037;49.536;8.500;2023-08-24T11:38:11;32.00;2.50
38241;DHT22;24037;49.536;8.500;2023-08-24T11:40:44;32.00;2.60
38241;DHT22;24037;49.536;8.500;2023-08-24T11:43:31;32.10;1.00
38241;DHT22;24037;49.536;8.500;2023-08-24T11:45:57;32.20;6.40
38241;DHT22;24037;49.536;8.500;2023-08-24T11:48:47;32.10;6.80
38241;DHT22;24037;49.536;8.500;2023-08-24T11:51:14;32.20;11.80
38241;DHT22;24037;49.536;8.500;2023-08-24T11:53:45;32.10;6.20
38241;DHT22;24037;49.536;8.500;2023-08-24T11:56:13;32.00;7.20
38241;DHT22;24037;49.536;8.500;2023-08-24T11:58:40;32.10;7.20
38241;DHT22;24037;49.536;8.500;2023-08-24T12:01:11;32.10;5.80
38241;DHT22;24037;49.536;8.500;2023-08-24T12:03:40;32.10;2.60
38241;DHT22;24037;49.536;8.500;2023-08-24T12:06:12;32.10;4.40
38241;DHT22;24037;49.536;8.500;2023-08-24T12:08:41;32.10;7.10
38241;DHT22;24037;49.536;8.500;2023-08-24T12:11:16;32.10;9.80
38241;DHT22;24037;49.536;8.500;2023-08-24T12:13:51;32.30;7.80
38241;DHT22;24037;49.536;8.500;2023-08-24T12:16:20;32.50;9.00
38241;DHT22;24037;49.536;8.500;2023-08-24T12:21:14;32.70;8.20
38241;DHT22;24037;49.536;8.500;2023-08-24T12:23:43;32.80;5.80
38241;DHT22;24037;49.536;8.500;2023-08-24T12:26:17;32.80;1.70
38241;DHT22;24037;49.536;8.500;2023-08-24T12:28:43;32.50;6.30
38241;DHT22;24037;49.536;8.500;2023-08-24T12:31:14;32.50;9.00
38241;DHT22;24037;49.536;8.500;2023-08-24T12:33:42;32.40;14.90
38241;DHT22;24037;49.536;8.500;2023-08-24T12:36:08;32.20;7.80
38241;DHT22;24037;49.536;8.500;2023-08-24T12:38:35;32.10;9.90
38241;DHT22;24037;49.536;8.500;2023-08-24T12:41:01;32.00;11.90
38241;DHT22;24037;49.536;8.500;2023-08-24T12:43:29;31.90;13.10
38241;DHT22;24037;49.536;8.500;2023-08-24T12:45:56;32.10;17.00
38241;DHT22;24037;49.536;8.500;2023-08-24T12:48:22;32.20;11.50
38241;DHT22;24037;49.536;8.500;2023-08-24T12:50:49;32.30;10.00
38241;DHT22;24037;49.536;8.500;2023-08-24T12:53:15;32.10;9.60
38241;DHT22;24037;49.536;8.500;2023-08-24T12:55:41;32.10;12.10
38241;DHT22;24037;49.536;8.500;2023-08-24T12:58:07;32.10;8.50
38241;DHT22;24037;49.536;8.500;2023-08-24T13:00:33;32.10;12.10
38241;DHT22;24037;49.536;8.500;2023-08-24T13:02:59;31.90;12.60
38241;DHT22;24037;49.536;8.500;2023-08-24T13:05:26;31.90;15.90
38241;DHT22;24037;49.536;8.500;2023-08-24T13:07:52;31.90;13.70
38241;DHT22;24037;49.536;8.500;2023-08-24T13:10:20;31.70;12.10
38241;DHT22;24037;49.536;8.500;2023-08-24T13:12:47;31.70;13.50
38241;DHT22;24037;49.536;8.500;2023-08-24T13:15:14;31.70;11.40
38241;DHT22;24037;49.536;8.500;2023-08-24T13:17:41;31.60;15.10
38241;DHT22;24037;49.536;8.500;2023-08-24T13:20:07;31.60;16.50
38241;DHT22;24037;49.536;8.500;2023-08-24T13:22:33;31.60;20.90
38241;DHT22;24037;49.536;8.500;2023-08-24T13:25:00;31.70;16.40
38241;DHT22;24037;49.536;8.500;2023-08-24T13:27:26;31.90;16.60
38241;DHT22;24037;49.536;8.500;2023-08-24T13:29:52;32.10;15.10
38241;DHT22;24037;49.536;8.500;2023-08-24T13:32:22;32.40;14.50
38241;DHT22;24037;49.536;8.500;2023-08-24T13:34:48;32.50;14.50
38241;DHT22;24037;49.536;8.500;2023-08-24T13:37:14;32.10;29.20
38241;DHT22;24037;49.536;8.500;2023-08-24T13:39:40;31.30;52.30
38241;DHT22;24037;49.536;8.500;2023-08-24T13:42:08;31.20;64.30
38241;DHT22;24037;49.536;8.500;2023-08-24T13:44:34;31.10;71.50
38241;DHT22;24037;49.536;8.500;2023-08-24T13:47:01;31.10;76.40
38241;DHT22;24037;49.536;8.500;2023-08-24T13:49:27;31.10;83.60
38241;DHT22;24037;49.536;8.500;2023-08-24T13:52:00;31.00;81.60
38241;DHT22;24037;49.536;8.500;2023-08-24T13:54:28;30.50;93.00
38241;DHT22;24037;49.536;8.500;2023-08-24T13:56:57;30.20;92.20
38241;DHT22;24037;49.536;8.500;2023-08-24T13:59:24;30.00;99.90
38241;DHT22;24037;49.536;8.500;2023-08-24T14:01:50;29.80;99.90
38241;DHT22;24037;49.536;8.500;2023-08-24T14:04:17;29.80;99.90
38241;DHT22;24037;49.536;8.500;2023-08-24T14:06:49;29.50;99.90
38241;DHT22;24037;49.536;8.500;2023-08-24T14:09:16;29.50;99.90
38241;DHT22;24037;49.536;8.500;2023-08-24T14:11:42;29.30;99.90
38241;DHT22;24037;49.536;8.500;2023-08-24T14:14:08;29.20;99.90
38241;DHT22;24037;49.536;8.500;2023-08-24T14:16:35;29.00;99.90
38241;DHT22;24037;49.536;8.500;2023-08-24T14:19:05;28.80;99.90
38241;DHT22;24037;49.536;8.500;2023-08-24T14:21:32;28.60;99.90
38241;DHT22;24037;49.536;8.500;2023-08-24T14:23:58;28.50;99.90
38241;DHT22;24037;49.536;8.500;2023-08-24T14:26:24;28.50;99.90
38241;DHT22;24037;49.536;8.500;2023-08-24T14:28:55;28.40;99.90
38241;DHT22;24037;49.536;8.500;2023-08-24T14:31:24;28.20;99.90
38241;DHT22;24037;49.536;8.500;2023-08-24T14:33:51;28.00;99.90
38241;DHT22;24037;49.536;8.500;2023-08-24T14:36:18;27.80;99.90
38241;DHT22;24037;49.536;8.500;2023-08-24T14:38:46;27.70;99.90
38241;DHT22;24037;49.536;8.500;2023-08-24T14:41:13;27.50;99.90
38241;DHT22;24037;49.536;8.500;2023-08-24T14:43:41;27.40;99.90
38241;DHT22;24037;49.536;8.500;2023-08-24T14:46:08;27.10;99.90
38241;DHT22;24037;49.536;8.500;2023-08-24T14:48:34;26.80;99.90
38241;DHT22;24037;49.536;8.500;2023-08-24T14:51:00;26.50;99.90
38241;DHT22;24037;49.536;8.500;2023-08-24T14:53:27;26.40;99.90
38241;DHT22;24037;49.536;8.500;2023-08-24T14:55:53;25.60;99.90
38241;DHT22;24037;49.536;8.500;2023-08-24T14:58:21;24.80;1.00
38241;DHT22;24037;49.536;8.500;2023-08-24T15:00:49;24.40;24.10
38241;DHT22;24037;49.536;8.500;2023-08-24T15:03:16;24.00;98.80
38241;DHT22;24037;49.536;8.500;2023-08-24T15:05:44;23.50;99.90
38241;DHT22;24037;49.536;8.500;2023-08-24T15:08:11;23.20;99.90
38241;DHT22;24037;49.536;8.500;2023-08-24T15:10:38;23.10;99.90
38241;DHT22;24037;49.536;8.500;2023-08-24T15:13:04;23.10;99.90
38241;DHT22;24037;49.536;8.500;2023-08-24T15:15:34;22.90;99.90
38241;DHT22;24037;49.536;8.500;2023-08-24T15:18:01;22.90;99.90
38241;DHT22;24037;49.536;8.500;2023-08-24T15:20:27;23.00;99.90
38241;DHT22;24037;49.536;8.500;2023-08-24T15:22:53;23.00;99.90
38241;DHT22;24037;49.536;8.500;2023-08-24T15:25:19;23.10;99.90
38241;DHT22;24037;49.536;8.500;2023-08-24T15:27:47;23.20;99.90
38241;DHT22;24037;49.536;8.500;2023-08-24T15:30:13;23.40;99.90
38241;DHT22;24037;49.536;8.500;2023-08-24T15:32:40;23.60;99.90
38241;DHT22;24037;49.536;8.500;2023-08-24T15:35:06;23.80;41.00
38241;DHT22;24037;49.536;8.500;2023-08-24T15:37:33;24.00;65.90
38241;DHT22;24037;49.536;8.500;2023-08-24T15:39:59;24.20;14.40
38241;DHT22;24037;49.536;8.500;2023-08-24T15:42:26;24.30;10.20
38241;DHT22;24037;49.536;8.500;2023-08-24T15:44:52;24.40;1.00
38241;DHT22;24037;49.536;8.500;2023-08-24T15:47:19;24.50;1.40
38241;DHT22;24037;49.536;8.500;2023-08-24T15:49:45;24.70;20.30
38241;DHT22;24037;49.536;8.500;2023-08-24T15:52:11;24.90;1.00